The Florida Keys Marathon Airport
KMTH : now visible

Airfield :











YOU CAN JOIN US ON...

 
LOGIN :

Register | Disclaimer

   EN    FR    IT 

 









Legend :    VFR   Marginal VFR   IFR   Intensive IFR   Very Intensive IFR
Visi :
Ceiling :
>= 8 km
>= 3000ft
5 to 8 km
1000 to 3000 ft
1500m to 5 km
500 to 1000 ft
800 to 1500m
200 to 500 ft
< 800m
< 200 ft
Symbols :   Thunderstorms  Fog  Heavy snow  Heavy precipitations  Wind > 20 kt






- Airport Elevation : 5 ft


KMTH - The Florida Keys Marathon

CURRENT METAR :
  • 041553Z AUTO 19005KT 10SM VCTS FEW026 32/26 A3006 RMK AO2 SLP179 T03220256

EXPIRED METARs :
  • 041453Z AUTO 20005KT 10SM CLR 30/24 A3006 RMK AO2 SLP179 T03000244 51023
  • 041353Z AUTO 14007KT 10SM CLR 31/25 A3004 RMK AO2 SLP172 T03110250
  • 041253Z AUTO 14008KT 10SM CLR 30/24 A3002 RMK AO2 SLP166 T03000239

TAF KMTH
Valid from the 04 at 16:00 until the 05 at 12:00 UTC


041543Z 0416/0512 19008KT P6SM VCSH SCT025
FM041800 15006KT P6SM FEW025
KZMA FIR / North America



MET'MAP, your aeronautical weather chart ! - Copyright ORBIFLY December 2007 - Disclaimer

ORBIFLY MET'MAP TEAM :

Programming & Development : Alexandra Zaïnal
Concept & original design : Baudouin d'Aumeries
Assistance for programming : Marc-Olivier Méhu
Technical & hardware support : Manuel Goepfert

Contact : metmap@orbifly.com




SOURCES & CREDITS :

   NOAA       Earth
Advisory